Time;durP1;ratioP1;P1;durP2;ratioP2;P2;SDS_P1;SDS_P2;PMS_P1;PMS_P2;Temp;Humidity;BMP_temperature;BMP_pressure;BME280_temperature;BME280_humidity;BME280_pressure;Samples;Min_cycle;Max_cycle;Signal;HPM_P1;HPM_P2
2023/09/29 00:06:20;;;;;;;11.30;9.10;;;;;;;13.02;77.79;100016.75;435278;1250;126735;-61
2023/09/29 00:16:26;;;;;;;9.40;8.50;;;;;;;12.85;78.02;100016.25;435123;1254;141580;-63
2023/09/29 00:26:32;;;;;;;14.50;10.40;;;;;;;12.69;78.37;100013.96;435858;1251;139591;-63
2023/09/29 00:36:38;;;;;;;14.10;11.40;;;;;;;12.57;79.04;100006.83;436289;1254;140106;-62
2023/09/29 00:46:45;;;;;;;13.00;10.60;;;;;;;12.47;79.99;100002.04;435669;1255;140350;-62
2023/09/29 00:56:50;;;;;;;11.40;10.20;;;;;;;12.35;80.19;99993.18;435714;1251;139805;-63
2023/09/29 01:06:56;;;;;;;12.50;9.80;;;;;;;12.25;80.87;100002.40;435593;1254;140997;-63
2023/09/29 01:17:02;;;;;;;11.80;10.50;;;;;;;12.15;81.49;100002.53;435774;1251;140249;-63
2023/09/29 01:27:08;;;;;;;15.90;12.90;;;;;;;12.07;82.08;100001.06;435811;1251;140025;-62
2023/09/29 01:37:14;;;;;;;14.20;12.70;;;;;;;12.13;84.40;99996.34;435637;1256;140685;-63
2023/09/29 01:47:21;;;;;;;16.50;14.50;;;;;;;12.18;85.44;99986.54;435640;1251;139831;-63
2023/09/29 01:57:27;;;;;;;18.60;15.00;;;;;;;12.33;87.71;99979.45;436174;1256;141570;-63
2023/09/29 02:07:33;;;;;;;16.30;12.20;;;;;;;12.41;87.66;99977.70;436639;1251;141991;-63
2023/09/29 02:17:39;;;;;;;22.00;15.10;;;;;;;12.37;88.09;99976.04;435952;1255;140811;-63
2023/09/29 02:27:46;;;;;;;19.00;16.40;;;;;;;12.49;89.03;99974.36;436124;1251;139841;-66
2023/09/29 02:37:53;;;;;;;14.20;11.50;;;;;;;12.54;89.50;99974.89;436228;1256;140509;-63
2023/09/29 02:47:59;;;;;;;16.70;14.90;;;;;;;12.50;89.14;99974.96;435740;1255;141471;-62
2023/09/29 02:58:06;;;;;;;19.40;14.20;;;;;;;12.36;88.41;99973.95;435895;1253;139758;-63
2023/09/29 03:08:12;;;;;;;15.10;12.90;;;;;;;12.17;87.98;99970.95;435746;1251;139794;-62
2023/09/29 03:18:18;;;;;;;25.10;18.30;;;;;;;12.06;88.56;99969.61;435519;1251;142302;-62
2023/09/29 03:28:25;;;;;;;24.90;18.90;;;;;;;12.08;90.04;99961.38;436190;1251;139694;-63
2023/09/29 03:38:31;;;;;;;20.90;16.90;;;;;;;12.08;90.76;99957.21;435968;1256;140530;-63
2023/09/29 03:48:38;;;;;;;25.60;19.70;;;;;;;12.04;91.15;99951.41;435887;1256;141229;-62
2023/09/29 03:58:45;;;;;;;21.40;18.70;;;;;;;12.01;91.91;99952.70;436197;1253;139579;-60
2023/09/29 04:08:51;;;;;;;20.70;18.30;;;;;;;11.99;92.53;99937.55;435866;1251;142241;-62
2023/09/29 04:18:57;;;;;;;24.10;19.60;;;;;;;11.93;92.73;99940.56;435554;1253;140759;-62
2023/09/29 04:29:03;;;;;;;21.80;17.80;;;;;;;11.88;93.38;99944.54;435831;1255;139477;-61
2023/09/29 04:39:09;;;;;;;22.80;19.30;;;;;;;11.87;93.79;99941.61;435755;1251;139426;-62
2023/09/29 04:49:16;;;;;;;24.90;18.80;;;;;;;11.91;94.33;99942.08;435658;1251;139605;-61
2023/09/29 04:59:21;;;;;;;23.90;20.40;;;;;;;11.99;94.73;99941.06;435842;1251;140856;-63
2023/09/29 05:09:27;;;;;;;24.30;19.10;;;;;;;12.13;94.83;99941.03;435699;1256;139845;-63
2023/09/29 05:19:33;;;;;;;19.40;17.10;;;;;;;12.37;94.90;99941.09;436023;1255;140933;-64
2023/09/29 05:29:39;;;;;;;22.10;18.20;;;;;;;12.75;94.93;99940.70;436111;1254;139895;-63
2023/09/29 05:39:46;;;;;;;17.00;14.80;;;;;;;14.27;95.54;99941.77;435709;1251;139437;-66
2023/09/29 05:49:52;;;;;;;15.30;13.80;;;;;;;18.39;93.11;99942.84;436274;1251;140504;-65
2023/09/29 06:00:17;;;;;;;15.70;13.50;;;;;;;22.35;81.07;99947.17;436681;1251;140697;-66
2023/09/29 06:10:23;;;;;;;15.30;11.30;;;;;;;25.31;71.06;99947.66;436678;1254;139645;-69
2023/09/29 06:20:29;;;;;;;12.20;10.90;;;;;;;27.88;62.47;99943.89;435906;1255;139384;-61
2023/09/29 06:30:36;;;;;;;12.50;11.00;;;;;;;30.42;56.05;99943.30;435742;1255;140432;-62
2023/09/29 06:40:43;;;;;;;12.80;9.70;;;;;;;33.11;50.72;99945.09;436044;1251;139763;-64
2023/09/29 06:50:49;;;;;;;12.50;9.50;;;;;;;35.35;45.10;99947.20;436490;1254;138775;-64
2023/09/29 07:00:56;;;;;;;10.50;9.70;;;;;;;36.76;40.58;99950.29;436377;1254;138665;-60
2023/09/29 07:11:07;;;;;;;10.50;9.30;;;;;;;37.89;37.75;99947.23;436440;1254;139106;-61
2023/09/29 07:21:14;;;;;;;9.10;7.20;;;;;;;39.54;35.30;99946.20;435943;1255;188396;-60
2023/09/29 07:31:20;;;;;;;9.60;7.30;;;;;;;40.68;32.79;99948.19;436543;1251;139040;-60
2023/09/29 07:41:26;;;;;;;8.70;6.60;;;;;;;41.79;31.12;99951.56;435917;1251;139680;-62
2023/09/29 07:51:32;;;;;;;9.80;5.60;;;;;;;42.90;29.23;99949.30;436313;1255;138468;-62
2023/09/29 08:01:38;;;;;;;6.80;5.00;;;;;;;43.64;27.29;99948.55;436281;1253;138756;-63
2023/09/29 08:11:45;;;;;;;8.10;4.40;;;;;;;44.65;26.40;99950.25;435861;1253;138478;-62
2023/09/29 08:21:51;;;;;;;6.60;4.60;;;;;;;45.29;25.15;99941.09;436088;1251;138578;-61
2023/09/29 08:32:00;;;;;;;5.10;4.50;;;;;;;45.71;24.04;99936.21;436050;1255;139940;-65
2023/09/29 08:42:14;;;;;;;6.10;4.60;;;;;;;45.17;23.26;99936.20;436409;1254;140854;-68
2023/09/29 08:52:21;;;;;;;8.00;4.20;;;;;;;43.52;23.13;99930.25;435476;1253;138822;-68
2023/09/29 09:02:27;;;;;;;7.20;4.30;;;;;;;39.25;24.21;99915.33;435848;1255;138521;-65
2023/09/29 09:12:39;;;;;;;4.90;3.90;;;;;;;35.71;26.28;99908.95;435818;1254;138984;-64
2023/09/29 09:22:57;;;;;;;6.10;3.80;;;;;;;32.97;28.20;99903.39;436061;1254;139373;-66
2023/09/29 09:33:03;;;;;;;5.90;4.10;;;;;;;31.25;29.57;99898.52;435924;1254;139453;-66
2023/09/29 09:43:09;;;;;;;;;;;;;;;30.04;30.84;99894.02;435948;1253;138577;-65
2023/09/29 09:53:18;;;;;;;8.10;4.30;;;;;;;29.13;31.79;99884.75;436323;1254;125650;-64
2023/09/29 10:03:27;;;;;;;12.30;3.60;;;;;;;28.43;32.46;99883.83;436298;1254;138417;-63
2023/09/29 10:13:38;;;;;;;7.30;4.60;;;;;;;27.84;33.06;99881.66;436142;1254;139063;-63
2023/09/29 10:23:50;;;;;;;6.60;4.10;;;;;;;27.36;33.84;99874.77;436700;1254;139669;-63
2023/09/29 10:33:57;;;;;;;6.70;3.90;;;;;;;26.95;34.69;99868.55;436023;1256;139273;-62
2023/09/29 10:44:05;;;;;;;7.20;4.30;;;;;;;26.61;35.12;99868.35;435889;1255;138567;-63
2023/09/29 10:54:11;;;;;;;5.30;3.80;;;;;;;26.33;35.37;99860.05;435925;1253;138701;-62
2023/09/29 11:04:18;;;;;;;6.10;3.70;;;;;;;26.18;35.33;99849.77;435857;1254;138974;-64
2023/09/29 11:14:25;;;;;;;6.30;3.10;;;;;;;26.13;35.65;99833.98;436190;1254;138422;-64
2023/09/29 11:24:43;;;;;;;6.50;2.80;;;;;;;26.07;35.51;99817.21;436917;1253;138532;-67
2023/09/29 11:34:49;;;;;;;12.40;4.20;;;;;;;26.01;35.53;99803.27;436612;1255;139226;-68
2023/09/29 11:44:55;;;;;;;6.10;3.50;;;;;;;25.96;35.88;99793.87;436921;1255;138599;-65
2023/09/29 11:55:01;;;;;;;12.30;3.50;;;;;;;25.95;35.42;99786.29;436478;1255;139983;-63
2023/09/29 12:05:09;;;;;;;4.50;2.80;;;;;;;25.92;35.14;99774.23;435934;1251;140757;-64
2023/09/29 12:15:17;;;;;;;8.60;3.20;;;;;;;25.83;35.08;99763.90;436081;1255;138406;-70
2023/09/29 12:25:23;;;;;;;15.00;3.50;;;;;;;25.80;35.14;99756.92;435802;1255;139918;-61
2023/09/29 12:35:29;;;;;;;5.30;2.90;;;;;;;25.83;34.95;99752.64;435636;1255;139171;-61
2023/09/29 12:45:35;;;;;;;4.60;3.00;;;;;;;25.83;35.12;99749.50;435840;1251;140282;-60
2023/09/29 12:55:41;;;;;;;5.00;3.40;;;;;;;25.86;35.30;99740.88;435991;1255;139037;-59
2023/09/29 13:05:47;;;;;;;54.90;9.20;;;;;;;25.86;35.29;99743.23;435406;1256;138603;-59
2023/09/29 13:15:53;;;;;;;5.70;3.60;;;;;;;25.82;35.36;99741.23;435572;1255;139795;-60
2023/09/29 13:25:59;;;;;;;6.00;3.60;;;;;;;25.79;35.61;99735.02;435906;1255;138428;-66
2023/09/29 13:36:05;;;;;;;5.80;3.30;;;;;;;25.77;35.83;99726.61;435847;1256;138610;-67
2023/09/29 13:46:11;;;;;;;5.10;3.10;;;;;;;25.71;35.54;99718.62;436131;1255;139491;-68
2023/09/29 13:56:19;;;;;;;6.20;3.00;;;;;;;25.71;36.09;99713.95;436004;1256;139168;-72
2023/09/29 14:06:24;;;;;;;6.40;3.30;;;;;;;25.70;36.45;99707.83;435739;1256;138548;-68
2023/09/29 14:16:31;;;;;;;8.00;3.30;;;;;;;25.65;36.58;99703.03;436436;1256;139087;-64
2023/09/29 14:26:39;;;;;;;7.70;3.40;;;;;;;25.55;36.68;99697.83;436014;1256;138922;-60
2023/09/29 14:36:45;;;;;;;3.80;3.50;;;;;;;25.42;36.82;99690.79;435827;1256;138666;-60
2023/09/29 14:46:51;;;;;;;6.60;3.20;;;;;;;25.21;36.93;99690.21;436063;1256;138778;-60
2023/09/29 14:56:56;;;;;;;8.10;3.90;;;;;;;24.96;37.39;99686.80;436493;1257;138455;-61
2023/09/29 15:07:02;;;;;;;8.80;5.00;;;;;;;24.76;37.81;99681.31;435858;1257;139090;-62
2023/09/29 15:17:08;;;;;;;7.50;2.80;;;;;;;24.53;38.43;99683.77;435655;1257;138566;-62
2023/09/29 15:27:14;;;;;;;7.30;3.10;;;;;;;24.22;39.31;99688.02;435820;1257;139058;-61
2023/09/29 15:37:20;;;;;;;11.50;4.10;;;;;;;23.81;40.29;99688.48;435997;1256;138883;-62
2023/09/29 15:47:26;;;;;;;7.10;3.60;;;;;;;23.38;41.02;99689.23;435611;1251;139047;-61
2023/09/29 15:57:31;;;;;;;9.20;4.20;;;;;;;22.95;41.77;99690.67;435823;1257;138528;-62
2023/09/29 16:07:38;;;;;;;13.10;4.20;;;;;;;22.49;43.30;99694.33;435857;1255;139386;-62
2023/09/29 16:17:45;;;;;;;16.00;7.60;;;;;;;22.01;45.05;99695.05;436045;1257;139766;-62
2023/09/29 16:27:52;;;;;;;18.90;7.90;;;;;;;21.47;46.87;99698.92;436058;1251;139266;-62
2023/09/29 16:37:58;;;;;;;13.20;6.90;;;;;;;20.96;48.42;99701.16;436340;1256;138805;-62
2023/09/29 16:48:04;;;;;;;14.90;7.20;;;;;;;20.48;49.51;99696.61;436420;1255;138752;-62
2023/09/29 16:58:10;;;;;;;15.90;7.50;;;;;;;20.08;50.26;99696.86;435685;1251;139475;-60
2023/09/29 17:08:16;;;;;;;12.70;7.20;;;;;;;19.69;51.53;99697.94;436083;1251;138507;-62
2023/09/29 17:18:22;;;;;;;13.50;7.90;;;;;;;19.31;52.36;99701.30;436042;1254;139666;-62
2023/09/29 17:28:28;;;;;;;14.50;6.40;;;;;;;18.99;53.53;99705.08;435902;1256;138712;-63
2023/09/29 17:38:38;;;;;;;15.10;6.50;;;;;;;18.72;54.19;99710.68;435992;1251;138780;-62
2023/09/29 17:48:44;;;;;;;10.60;5.70;;;;;;;18.52;54.74;99707.79;435893;1251;138673;-61
2023/09/29 17:58:49;;;;;;;15.90;7.00;;;;;;;18.34;54.97;99708.92;435859;1251;139834;-61
2023/09/29 18:08:55;;;;;;;12.10;6.80;;;;;;;18.20;55.55;99712.05;436190;1255;138723;-63
2023/09/29 18:19:02;;;;;;;17.00;7.30;;;;;;;18.02;56.15;99713.71;435952;1251;139158;-63
2023/09/29 18:29:08;;;;;;;11.10;7.20;;;;;;;17.85;56.96;99713.14;435991;1254;138804;-63
2023/09/29 18:39:16;;;;;;;25.70;8.20;;;;;;;17.65;57.71;99708.90;435981;1251;138629;-62
2023/09/29 18:49:21;;;;;;;14.60;7.70;;;;;;;17.49;58.16;99703.86;436037;1255;138562;-63
2023/09/29 18:59:27;;;;;;;18.70;13.60;;;;;;;17.34;58.99;99703.08;435669;1251;140846;-62
2023/09/29 19:09:33;;;;;;;10.40;6.80;;;;;;;17.20;59.61;99700.22;435959;1255;139004;-62
2023/09/29 19:19:40;;;;;;;10.60;6.80;;;;;;;17.07;59.79;99701.39;435738;1251;158646;-62
2023/09/29 19:29:45;;;;;;;10.80;6.60;;;;;;;16.98;60.22;99696.36;435752;1253;139723;-62
2023/09/29 19:39:51;;;;;;;9.60;6.40;;;;;;;16.88;60.39;99697.02;436431;1254;140652;-63
2023/09/29 19:49:57;;;;;;;13.30;6.50;;;;;;;16.79;60.75;99689.55;436496;1251;139876;-62
2023/09/29 20:00:05;;;;;;;7.30;6.00;;;;;;;16.64;60.95;99688.85;436023;1251;140320;-62
2023/09/29 20:10:12;;;;;;;11.80;7.40;;;;;;;16.49;61.17;99690.91;436191;1251;139661;-63
2023/09/29 20:20:18;;;;;;;15.00;7.30;;;;;;;16.32;61.82;99694.26;436501;1253;138629;-63
2023/09/29 20:30:25;;;;;;;8.50;5.90;;;;;;;16.13;62.65;99690.95;436062;1251;140462;-62
2023/09/29 20:40:30;;;;;;;13.00;8.60;;;;;;;15.94;63.42;99685.70;435887;1251;140928;-63
2023/09/29 20:50:37;;;;;;;7.40;6.70;;;;;;;15.72;63.71;99677.25;435939;1255;139283;-64
2023/09/29 21:00:43;;;;;;;11.30;6.70;;;;;;;15.54;64.14;99677.55;435955;1254;139256;-63
2023/09/29 21:10:49;;;;;;;7.00;6.20;;;;;;;15.37;64.80;99671.81;435973;1254;139771;-62
2023/09/29 21:20:55;;;;;;;11.00;6.80;;;;;;;15.20;65.30;99666.68;436078;1254;139246;-64
2023/09/29 21:31:01;;;;;;;16.70;10.60;;;;;;;15.06;65.85;99667.11;436448;1251;140286;-64
2023/09/29 21:41:07;;;;;;;10.70;6.60;;;;;;;15.02;66.40;99664.48;436138;1254;139581;-65
2023/09/29 21:51:14;;;;;;;11.50;7.20;;;;;;;15.01;66.78;99665.45;436607;1251;140226;-63
2023/09/29 22:01:20;;;;;;;11.90;7.20;;;;;;;15.03;67.31;99660.89;436316;1251;139356;-63
2023/09/29 22:11:26;;;;;;;16.10;6.20;;;;;;;15.07;67.36;99652.29;436006;1251;139978;-62
2023/09/29 22:21:32;;;;;;;9.40;7.60;;;;;;;15.17;67.74;99649.84;436238;1251;139900;-64
2023/09/29 22:31:38;;;;;;;11.10;6.60;;;;;;;15.28;68.15;99642.27;435964;1251;140200;-62
2023/09/29 22:41:44;;;;;;;10.30;5.90;;;;;;;15.34;68.21;99636.46;435689;1251;139443;-64
2023/09/29 22:51:50;;;;;;;7.50;6.50;;;;;;;15.43;67.95;99625.16;435826;1251;139473;-63
2023/09/29 23:01:56;;;;;;;9.10;6.30;;;;;;;15.51;67.86;99617.39;435830;1253;139240;-63
2023/09/29 23:12:03;;;;;;;10.20;7.40;;;;;;;15.62;67.72;99625.02;435481;1256;139250;-64
2023/09/29 23:22:09;;;;;;;7.80;6.50;;;;;;;15.72;67.97;99626.98;435741;1254;141040;-63
2023/09/29 23:32:15;;;;;;;11.70;7.10;;;;;;;15.79;68.61;99631.85;435459;1254;139354;-62
2023/09/29 23:42:21;;;;;;;12.70;9.20;;;;;;;15.85;68.66;99639.43;435767;1251;140983;-64
2023/09/29 23:52:27;;;;;;;6.70;6.00;;;;;;;15.90;69.05;99641.31;435840;1250;140297;-63
